Time;durP1;ratioP1;P1;durP2;ratioP2;P2;SDS_P1;SDS_P2;PMS_P1;PMS_P2;Temp;Humidity;BMP_temperature;BMP_pressure;BME280_temperature;BME280_humidity;BME280_pressure;Samples;Min_cycle;Max_cycle;Signal;HPM_P1;HPM_P2
2023/03/23 00:00:28;;;;;;;43.70;20.20;;;;;;;10.27;77.19;98341.63;67597;1281;1016245;-60
2023/03/23 00:03:48;;;;;;;48.10;22.00;;;;;;;10.30;77.80;98342.27;67558;1281;1019721;-60
2023/03/23 00:06:51;;;;;;;45.80;22.20;;;;;;;10.48;77.26;98340.39;67642;1281;1016328;-60
2023/03/23 00:09:55;;;;;;;45.00;21.30;;;;;;;10.69;76.76;98337.54;67564;1281;1016369;-60
2023/03/23 00:13:02;;;;;;;42.90;20.20;;;;;;;10.70;76.51;98336.44;67599;1281;1016246;-60
2023/03/23 00:16:04;;;;;;;44.00;20.40;;;;;;;10.81;75.61;98334.33;67596;1281;1016914;-60
2023/03/23 00:19:07;;;;;;;44.30;18.90;;;;;;;10.73;75.56;98330.10;67614;1281;1016507;-60
2023/03/23 00:22:09;;;;;;;44.10;19.90;;;;;;;10.65;75.48;98329.08;67623;1281;1016187;-60
2023/03/23 00:25:12;;;;;;;50.10;21.10;;;;;;;10.63;75.28;98329.42;67592;1281;1016497;-60
2023/03/23 00:28:14;;;;;;;44.00;19.90;;;;;;;10.51;76.05;98335.63;67572;1281;1018849;-60
2023/03/23 00:31:17;;;;;;;41.00;20.00;;;;;;;10.58;75.41;98338.49;67634;1281;1016513;-60
2023/03/23 00:34:19;;;;;;;81.70;32.90;;;;;;;10.54;74.56;98334.25;67652;1281;1018717;-60
2023/03/23 00:37:22;;;;;;;;;;;;;;;10.46;74.14;98335.30;67590;1281;1016343;-60
2023/03/23 00:40:26;;;;;;;71.80;28.80;;;;;;;10.41;73.88;98334.39;67553;1281;1016512;-60
2023/03/23 00:43:28;;;;;;;47.90;19.90;;;;;;;10.38;73.49;98334.23;67611;1281;1016401;-60
2023/03/23 00:46:31;;;;;;;50.20;21.70;;;;;;;10.35;73.97;98334.98;67599;1281;1016447;-60
2023/03/23 00:49:34;;;;;;;45.30;20.00;;;;;;;10.29;75.03;98332.94;67608;1281;1016284;-60
2023/03/23 00:52:36;;;;;;;46.90;21.70;;;;;;;10.34;74.29;98328.04;67597;1281;1016365;-60
2023/03/23 00:55:39;;;;;;;49.60;20.30;;;;;;;10.35;74.13;98329.04;67611;1281;1019916;-60
2023/03/23 00:58:41;;;;;;;41.10;18.60;;;;;;;10.33;73.93;98324.11;67643;1281;1015931;-60
2023/03/23 01:01:44;;;;;;;45.70;19.20;;;;;;;10.25;74.41;98320.94;67621;1281;1016240;-60
2023/03/23 01:04:47;;;;;;;40.30;18.80;;;;;;;10.23;74.64;98313.95;67553;1281;1016001;-60
2023/03/23 01:07:49;;;;;;;44.50;20.00;;;;;;;10.24;74.81;98311.39;67506;1281;1016543;-60
2023/03/23 01:10:53;;;;;;;40.30;18.70;;;;;;;10.24;73.93;98307.61;67648;1281;1016415;-60
2023/03/23 01:13:56;;;;;;;44.30;21.10;;;;;;;10.12;74.23;98310.30;67634;1281;1016205;-60
2023/03/23 01:16:58;;;;;;;47.20;21.40;;;;;;;10.03;74.86;98309.47;67569;1281;1016463;-60
2023/03/23 01:20:10;;;;;;;52.40;23.40;;;;;;;10.03;74.83;98311.23;65472;1281;5371213;-60
2023/03/23 01:23:13;;;;;;;62.10;27.60;;;;;;;9.88;75.53;98312.56;67494;1281;1018537;-60
2023/03/23 01:26:15;;;;;;;62.70;26.70;;;;;;;9.78;75.26;98317.08;67535;1281;1016389;-60
2023/03/23 01:29:17;;;;;;;55.90;25.90;;;;;;;9.79;75.53;98315.60;67508;1281;1015967;-60
2023/03/23 01:32:20;;;;;;;52.60;24.40;;;;;;;9.86;75.34;98313.95;67621;1281;1016552;-60
2023/03/23 01:35:23;;;;;;;42.70;20.40;;;;;;;9.93;75.76;98318.90;67565;1281;1016510;-60
2023/03/23 01:38:25;;;;;;;47.50;22.80;;;;;;;9.95;75.27;98319.27;67615;1281;1016904;-60
2023/03/23 01:41:28;;;;;;;43.50;20.40;;;;;;;9.92;75.08;98315.83;67623;1281;1016334;-60
2023/03/23 01:44:30;;;;;;;45.50;20.70;;;;;;;9.86;75.54;98319.85;67635;1281;1016469;-60
2023/03/23 01:47:33;;;;;;;42.10;19.50;;;;;;;9.83;75.31;98321.84;67610;1281;1016167;-60
2023/03/23 01:50:36;;;;;;;43.90;19.90;;;;;;;9.72;75.96;98319.02;67563;1281;1016300;-60
2023/03/23 01:53:38;;;;;;;41.40;20.70;;;;;;;9.72;76.76;98318.02;67641;1281;1016473;-60
2023/03/23 01:56:41;;;;;;;;;;;;;;;9.71;77.22;98319.29;67604;1281;1017560;-60
2023/03/23 01:59:44;;;;;;;48.70;22.70;;;;;;;9.64;78.04;98318.88;67628;1281;1016436;-60
2023/03/23 02:02:47;;;;;;;48.90;25.10;;;;;;;9.70;77.91;98314.48;67604;1281;1016952;-60
2023/03/23 02:05:49;;;;;;;42.20;20.00;;;;;;;9.70;77.70;98312.33;67670;1281;1016452;-60
2023/03/23 02:08:52;;;;;;;45.40;20.80;;;;;;;9.74;77.85;98310.40;67637;1281;1016435;-60
2023/03/23 02:11:55;;;;;;;40.40;18.90;;;;;;;9.82;77.29;98310.34;67593;1281;1016222;-60
2023/03/23 02:14:57;;;;;;;41.70;19.90;;;;;;;9.79;77.83;98305.31;67584;1281;1016186;-60
2023/03/23 02:18:00;;;;;;;;;;;;;;;9.66;78.48;98307.55;67626;1281;1016828;-60
2023/03/23 02:21:02;;;;;;;43.80;19.90;;;;;;;9.73;77.99;98306.98;67638;1281;1017789;-60
2023/03/23 02:24:05;;;;;;;40.30;18.10;;;;;;;9.74;77.72;98302.16;67549;1281;1016431;-60
2023/03/23 02:27:08;;;;;;;39.80;18.50;;;;;;;9.67;78.35;98306.41;67517;1281;1016687;-60
2023/03/23 02:30:10;;;;;;;41.90;18.60;;;;;;;9.61;78.61;98305.77;67521;1281;1016401;-60
2023/03/23 02:33:12;;;;;;;39.30;18.50;;;;;;;9.54;78.89;98305.88;67661;1281;1016440;-60
2023/03/23 02:36:15;;;;;;;41.30;18.20;;;;;;;9.56;78.78;98306.80;67594;1281;1019570;-60
2023/03/23 02:39:17;;;;;;;45.10;21.90;;;;;;;9.62;78.05;98307.46;67562;1281;1017066;-60
2023/03/23 02:42:20;;;;;;;47.60;23.70;;;;;;;9.44;78.20;98309.88;67583;1281;1016440;-60
2023/03/23 02:45:23;;;;;;;47.70;22.10;;;;;;;9.18;78.54;98310.62;67620;1281;1017609;-60
2023/03/23 02:48:25;;;;;;;50.10;23.40;;;;;;;9.10;79.37;98307.98;67584;1281;1016314;-60
2023/03/23 02:51:27;;;;;;;72.00;29.90;;;;;;;9.14;79.81;98314.56;67567;1281;1016273;-60
2023/03/23 02:54:30;;;;;;;51.40;23.10;;;;;;;9.10;79.65;98313.77;67519;1281;1016683;-60
2023/03/23 02:57:32;;;;;;;57.90;25.70;;;;;;;9.09;79.88;98316.92;67635;1281;1016488;-60
2023/03/23 03:00:35;;;;;;;41.70;18.80;;;;;;;9.03;80.00;98318.56;67628;1281;1016755;-60
2023/03/23 03:03:37;;;;;;;43.00;18.40;;;;;;;8.96;78.95;98311.50;67568;1281;1016479;-60
2023/03/23 03:06:39;;;;;;;39.30;18.20;;;;;;;8.92;78.71;98313.67;67599;1281;1016206;-60
2023/03/23 03:09:42;;;;;;;42.30;19.20;;;;;;;8.84;79.71;98314.85;67626;1281;1017208;-60
2023/03/23 03:12:44;;;;;;;42.40;18.00;;;;;;;8.83;79.29;98312.99;67635;1281;1016451;-60
2023/03/23 03:15:47;;;;;;;45.70;19.90;;;;;;;8.81;78.56;98303.38;67625;1281;1016511;-60
2023/03/23 03:18:49;;;;;;;61.70;26.10;;;;;;;8.72;79.11;98299.92;67639;1281;1018569;-60
2023/03/23 03:21:52;;;;;;;92.50;40.50;;;;;;;8.75;80.06;98298.84;67604;1281;1016295;-60
2023/03/23 03:24:56;;;;;;;84.90;38.20;;;;;;;8.81;80.12;98301.76;67621;1281;1016366;-60
2023/03/23 03:27:58;;;;;;;72.80;33.30;;;;;;;8.82;79.46;98297.17;67639;1281;1016479;-60
2023/03/23 03:31:01;;;;;;;72.90;34.20;;;;;;;8.71;79.17;98290.88;67646;1281;1018592;-60
2023/03/23 03:34:03;;;;;;;74.90;34.60;;;;;;;8.77;79.92;98292.79;67621;1281;1016481;-60
2023/03/23 03:37:06;;;;;;;73.40;35.90;;;;;;;8.80;79.60;98297.48;67552;1281;1016329;-60
2023/03/23 03:40:11;;;;;;;79.80;39.80;;;;;;;8.73;79.59;98303.30;67580;1281;1016246;-60
2023/03/23 03:43:14;;;;;;;70.10;36.50;;;;;;;8.62;79.08;98303.63;67596;1281;1016673;-60
2023/03/23 03:46:16;;;;;;;70.00;33.60;;;;;;;8.67;78.58;98308.21;67625;1281;1016470;-60
2023/03/23 03:49:19;;;;;;;66.90;32.70;;;;;;;8.63;79.43;98304.45;67607;1281;1016444;-60
2023/03/23 03:52:21;;;;;;;61.40;30.40;;;;;;;8.48;80.13;98305.86;67607;1281;1017458;-60
2023/03/23 03:55:24;;;;;;;61.20;28.80;;;;;;;8.39;80.20;98306.89;67650;1281;1018265;-60
2023/03/23 03:58:31;;;;;;;65.60;32.00;;;;;;;8.35;79.91;98302.64;67601;1281;1016446;-60
2023/03/23 04:01:34;;;;;;;52.10;24.30;;;;;;;8.35;80.30;98301.58;67583;1281;1016427;-60
2023/03/23 04:04:36;;;;;;;53.80;24.10;;;;;;;8.46;79.53;98300.94;67558;1281;1016456;-60
2023/03/23 04:07:39;;;;;;;45.70;20.70;;;;;;;8.42;79.17;98300.44;67595;1281;1016489;-60
2023/03/23 04:10:41;;;;;;;51.50;24.40;;;;;;;8.36;78.70;98305.20;67583;1281;1016199;-60
2023/03/23 04:13:43;;;;;;;50.00;23.10;;;;;;;8.28;79.15;98307.36;67630;1281;1017457;-61
2023/03/23 04:16:46;;;;;;;46.00;22.80;;;;;;;8.14;79.68;98303.87;67641;1281;1016553;-60
2023/03/23 04:19:48;;;;;;;61.00;29.10;;;;;;;8.13;79.27;98303.21;67648;1281;1016522;-60
2023/03/23 04:22:51;;;;;;;50.90;24.80;;;;;;;8.11;79.29;98299.89;67589;1281;1016549;-60
2023/03/23 04:25:56;;;;;;;53.10;23.60;;;;;;;8.07;79.19;98297.13;67636;1281;1016470;-60
2023/03/23 04:28:59;;;;;;;50.50;21.60;;;;;;;8.08;78.70;98296.00;67590;1281;1016324;-60
2023/03/23 04:32:02;;;;;;;48.70;24.10;;;;;;;8.02;79.32;98298.49;67631;1281;1015942;-60
2023/03/23 04:35:05;;;;;;;;;;;;;;;8.07;78.83;98295.59;67678;1281;1016256;-60
2023/03/23 04:38:07;;;;;;;47.60;21.70;;;;;;;7.95;78.83;98293.84;67590;1281;1016427;-60
2023/03/23 04:41:09;;;;;;;45.80;19.00;;;;;;;7.94;79.03;98292.48;67668;1281;1016491;-59
2023/03/23 04:44:17;;;;;;;46.60;22.10;;;;;;;7.96;79.37;98293.77;67652;1281;1015981;-59
2023/03/23 04:47:19;;;;;;;53.50;24.20;;;;;;;8.04;80.05;98294.52;67655;1281;1016231;-60
2023/03/23 04:50:23;;;;;;;100.00;40.20;;;;;;;7.94;79.92;98288.83;67662;1281;1018900;-60
2023/03/23 04:53:26;;;;;;;63.70;27.10;;;;;;;7.91;80.01;98291.97;67657;1281;1016277;-60
2023/03/23 04:56:28;;;;;;;53.00;22.80;;;;;;;7.94;80.36;98287.42;67566;1281;1018907;-60
2023/03/23 04:59:31;;;;;;;48.50;23.10;;;;;;;8.00;81.14;98285.73;67570;1281;1016500;-59
2023/03/23 05:02:33;;;;;;;48.40;21.00;;;;;;;8.16;80.84;98283.92;67545;1281;1016200;-60
2023/03/23 05:05:36;;;;;;;45.50;19.80;;;;;;;8.30;80.53;98271.59;67658;1281;1016406;-60
2023/03/23 05:08:39;;;;;;;41.60;19.00;;;;;;;8.37;81.37;98267.16;67603;1281;1016508;-60
2023/03/23 05:11:41;;;;;;;41.40;19.10;;;;;;;8.46;82.37;98261.89;67626;1281;1016497;-60
2023/03/23 05:14:43;;;;;;;45.30;19.80;;;;;;;8.68;82.91;98253.92;67654;1281;1017260;-60
2023/03/23 05:17:46;;;;;;;45.00;20.90;;;;;;;9.05;82.32;98262.79;67651;1281;1016465;-60
2023/03/23 05:20:48;;;;;;;48.50;20.60;;;;;;;9.16;80.80;98268.89;67617;1257;1016481;-60
2023/03/23 05:23:54;;;;;;;38.80;16.70;;;;;;;9.09;79.63;98265.15;67606;1281;1017823;-60
2023/03/23 05:26:57;;;;;;;42.40;20.00;;;;;;;9.05;80.21;98261.75;67559;1281;1016427;-59
2023/03/23 05:30:00;;;;;;;47.60;20.90;;;;;;;9.26;81.98;98259.73;67610;1281;1016495;-60
2023/03/23 05:33:03;;;;;;;54.60;23.10;;;;;;;9.38;84.69;98263.61;67629;1281;1016277;-59
2023/03/23 05:36:07;;;;;;;58.20;24.50;;;;;;;9.70;86.56;98262.64;67659;1281;1016376;-60
2023/03/23 05:39:10;;;;;;;67.00;27.40;;;;;;;10.00;88.07;98265.17;67654;1281;1016395;-59
2023/03/23 05:42:13;;;;;;;;;;;;;;;10.37;88.32;98261.77;67645;1281;1016371;-60
2023/03/23 05:45:16;;;;;;;52.90;29.40;;;;;;;10.63;86.76;98262.10;67628;1281;1016377;-60
2023/03/23 05:48:18;;;;;;;54.60;28.30;;;;;;;10.78;84.00;98263.84;67635;1281;1016831;-60
2023/03/23 05:51:21;;;;;;;48.20;23.20;;;;;;;10.93;83.53;98260.69;67657;1281;1016845;-60
2023/03/23 05:54:23;;;;;;;52.80;22.90;;;;;;;11.08;83.60;98265.42;67633;1281;1016318;-60
2023/03/23 05:57:26;;;;;;;54.10;24.00;;;;;;;11.36;83.40;98264.26;67585;1281;1016503;-60
2023/03/23 06:00:30;;;;;;;68.10;26.80;;;;;;;11.77;83.88;98264.58;67632;1281;1016064;-60
2023/03/23 06:03:35;;;;;;;70.00;25.50;;;;;;;11.95;85.54;98264.11;67666;1281;1016481;-60
2023/03/23 06:06:37;;;;;;;48.10;19.80;;;;;;;12.24;85.30;98268.42;67613;1281;1016349;-60
2023/03/23 06:09:41;;;;;;;59.00;23.50;;;;;;;12.49;83.66;98263.21;67656;1281;1016722;-60
2023/03/23 06:12:43;;;;;;;;;;;;;;;12.64;82.57;98253.10;67623;1281;1016339;-60
2023/03/23 06:15:45;;;;;;;52.10;19.00;;;;;;;12.86;81.51;98251.14;67590;1281;1016306;-60
2023/03/23 06:18:49;;;;;;;57.90;21.80;;;;;;;13.12;80.21;98253.67;67596;1281;1018794;-60
2023/03/23 06:21:51;;;;;;;45.10;18.80;;;;;;;13.32;79.77;98251.05;67634;1281;1016130;-60
2023/03/23 06:24:57;;;;;;;47.20;19.30;;;;;;;13.53;78.18;98249.52;67651;1281;1016357;-60
2023/03/23 06:28:00;;;;;;;40.90;17.30;;;;;;;13.69;77.47;98244.70;67596;1281;1016379;-60
2023/03/23 06:31:03;;;;;;;38.30;15.20;;;;;;;13.89;76.41;98243.52;67599;1281;1016934;-60
2023/03/23 06:34:06;;;;;;;39.10;17.50;;;;;;;14.13;74.84;98246.13;67614;1281;1017179;-60
2023/03/23 06:37:09;;;;;;;36.80;16.70;;;;;;;14.29;73.60;98240.20;67650;1281;1018833;-60
2023/03/23 06:40:12;;;;;;;43.00;21.30;;;;;;;14.38;73.59;98241.52;67593;1281;1016537;-60
2023/03/23 06:43:14;;;;;;;39.60;17.80;;;;;;;14.47;73.29;98239.38;67634;1281;1016344;-60
2023/03/23 06:46:17;;;;;;;35.60;15.80;;;;;;;14.63;71.69;98238.89;67569;1281;1016042;-60
2023/03/23 06:49:19;;;;;;;34.70;15.10;;;;;;;14.73;71.43;98244.51;67678;1281;1016166;-60
2023/03/23 06:52:22;;;;;;;34.00;15.50;;;;;;;14.96;70.48;98250.13;67644;1281;1016396;-60
2023/03/23 06:55:24;;;;;;;32.80;15.40;;;;;;;15.04;70.65;98249.59;67614;1281;1016071;-60
2023/03/23 06:58:27;;;;;;;34.30;14.30;;;;;;;14.99;69.63;98249.47;67661;1281;1016491;-60
2023/03/23 07:01:29;;;;;;;33.80;15.00;;;;;;;15.07;69.66;98257.41;67681;1281;1016517;-60
2023/03/23 07:04:33;;;;;;;33.70;14.80;;;;;;;15.17;68.93;98260.06;67636;1281;1018002;-60
2023/03/23 07:07:35;;;;;;;35.20;15.30;;;;;;;15.26;68.94;98258.49;67668;1281;1016208;-60
2023/03/23 07:10:38;;;;;;;36.50;15.90;;;;;;;15.48;68.10;98260.63;67636;1281;1016459;-60
2023/03/23 07:13:41;;;;;;;34.40;14.30;;;;;;;15.55;67.71;98265.27;67632;1281;1016494;-60
2023/03/23 07:16:43;;;;;;;32.90;14.90;;;;;;;15.72;67.19;98272.58;67681;1281;1016047;-60
2023/03/23 07:19:46;;;;;;;32.50;14.00;;;;;;;15.91;66.28;98265.77;67641;1281;1016445;-60
2023/03/23 07:22:48;;;;;;;33.20;15.00;;;;;;;16.05;66.06;98265.90;67644;1281;1018046;-60
2023/03/23 07:25:50;;;;;;;31.70;13.80;;;;;;;16.09;65.54;98266.92;67622;1281;1016448;-60
2023/03/23 07:28:53;;;;;;;34.10;13.80;;;;;;;16.18;65.27;98264.50;67623;1281;1018113;-60
2023/03/23 07:31:56;;;;;;;33.20;13.90;;;;;;;16.31;64.82;98265.60;67603;1281;1016005;-60
2023/03/23 07:34:58;;;;;;;32.80;13.60;;;;;;;16.34;64.01;98272.52;67599;1281;1016487;-60
2023/03/23 07:38:01;;;;;;;35.20;13.80;;;;;;;16.36;63.10;98272.58;67629;1281;1016490;-60
2023/03/23 07:41:04;;;;;;;31.10;12.90;;;;;;;16.43;62.99;98276.83;67628;1281;1017926;-60
2023/03/23 07:44:07;;;;;;;32.30;13.20;;;;;;;16.46;63.27;98280.98;67599;1281;1016354;-60
2023/03/23 07:47:09;;;;;;;;;;;;;;;16.69;62.54;98273.85;67643;1281;1016851;-60
2023/03/23 07:50:11;;;;;;;30.50;12.20;;;;;;;17.00;62.58;98276.08;67670;1281;1016441;-60
2023/03/23 07:53:14;;;;;;;33.20;13.10;;;;;;;17.20;61.08;98273.44;67646;1281;1016216;-60
2023/03/23 07:56:19;;;;;;;33.90;13.40;;;;;;;17.30;60.18;98274.91;67547;1281;1016309;-60
2023/03/23 07:59:21;;;;;;;35.30;14.80;;;;;;;17.41;60.26;98278.10;67614;1281;1016165;-60
2023/03/23 08:02:24;;;;;;;35.20;15.50;;;;;;;17.45;59.58;98279.30;67663;1281;1016889;-60
2023/03/23 08:05:27;;;;;;;44.50;17.60;;;;;;;17.64;58.98;98275.90;67613;1281;1016399;-60
2023/03/23 08:08:30;;;;;;;38.40;15.00;;;;;;;17.93;58.66;98275.66;67667;1281;1016487;-61
2023/03/23 08:11:32;;;;;;;27.90;11.10;;;;;;;18.11;57.96;98276.14;67669;1281;1015783;-60
2023/03/23 08:14:35;;;;;;;30.90;11.90;;;;;;;18.16;57.69;98281.02;67547;1281;1016218;-61
2023/03/23 08:17:38;;;;;;;26.60;10.70;;;;;;;18.39;58.42;98286.77;67692;1281;1017057;-60
2023/03/23 08:20:40;;;;;;;29.30;11.30;;;;;;;18.57;57.27;98279.28;67662;1281;1016910;-61
2023/03/23 08:23:43;;;;;;;28.50;10.90;;;;;;;18.84;55.94;98280.73;67599;1281;1016207;-61
2023/03/23 08:26:45;;;;;;;31.70;10.90;;;;;;;18.94;55.11;98276.12;67618;1281;1016439;-61
2023/03/23 08:29:48;;;;;;;26.00;11.10;;;;;;;18.94;55.34;98275.15;67599;1281;1016211;-60
2023/03/23 08:32:51;;;;;;;26.40;10.10;;;;;;;18.84;54.70;98268.58;67659;1281;1016435;-61
2023/03/23 08:35:54;;;;;;;26.00;9.70;;;;;;;18.79;54.67;98267.27;67609;1281;1018043;-60
2023/03/23 08:38:56;;;;;;;25.80;9.80;;;;;;;18.78;54.79;98263.75;67525;1281;1016325;-61
2023/03/23 08:41:58;;;;;;;26.10;10.00;;;;;;;18.81;54.35;98268.66;67569;1281;1016642;-61
2023/03/23 08:45:01;;;;;;;;;;;;;;;18.71;53.68;98267.98;67666;1281;1016104;-61
2023/03/23 08:48:03;;;;;;;27.40;10.10;;;;;;;18.71;54.58;98269.02;67675;1281;1016349;-61
2023/03/23 08:51:05;;;;;;;26.30;10.50;;;;;;;18.91;53.85;98265.58;67584;1281;1016435;-61
2023/03/23 08:54:08;;;;;;;;;;;;;;;19.15;54.63;98267.31;67642;1281;1016127;-61
2023/03/23 08:57:11;;;;;;;27.00;9.90;;;;;;;19.63;53.72;98260.48;67642;1281;1016412;-61
2023/03/23 09:00:17;;;;;;;26.30;9.50;;;;;;;20.04;52.22;98257.65;67659;1281;1016233;-61
2023/03/23 09:03:20;;;;;;;29.40;10.30;;;;;;;20.40;51.23;98256.56;67630;1281;1018888;-61
2023/03/23 09:06:22;;;;;;;25.50;8.50;;;;;;;20.82;51.40;98254.41;67583;1281;1016427;-61
2023/03/23 09:09:24;;;;;;;23.00;8.00;;;;;;;21.04;49.94;98254.91;67549;1281;1016713;-61
2023/03/23 09:12:27;;;;;;;;;;;;;;;21.31;49.25;98251.33;67656;1281;1018365;-61
2023/03/23 09:15:29;;;;;;;23.20;7.80;;;;;;;21.41;47.97;98243.23;67641;1281;1017372;-61
2023/03/23 09:18:32;;;;;;;;;;;;;;;21.49;47.63;98242.21;67647;1281;1016469;-61
2023/03/23 09:21:34;;;;;;;;;;;;;;;21.71;47.03;98242.70;67577;1281;1016406;-61
2023/03/23 09:24:37;;;;;;;22.40;8.00;;;;;;;21.86;46.69;98237.38;67621;1281;1016342;-61
2023/03/23 09:27:40;;;;;;;23.40;8.00;;;;;;;21.99;45.14;98235.36;67676;1281;1016469;-61
2023/03/23 09:30:43;;;;;;;22.10;7.90;;;;;;;21.94;45.14;98226.63;67607;1281;1016207;-61
2023/03/23 09:33:46;;;;;;;22.30;8.10;;;;;;;22.13;45.00;98221.92;67598;1281;1017007;-61
2023/03/23 09:36:49;;;;;;;;;;;;;;;22.13;44.48;98220.30;67611;1281;1016357;-61
2023/03/23 09:39:51;;;;;;;;;;;;;;;22.34;44.51;98218.92;67592;1281;1016924;-62
2023/03/23 09:42:54;;;;;;;25.00;8.00;;;;;;;22.50;44.27;98225.75;67616;1281;1016072;-61
2023/03/23 09:45:57;;;;;;;23.10;8.10;;;;;;;22.76;43.54;98220.16;67590;1281;1016391;-61
2023/03/23 09:49:00;;;;;;;24.70;7.60;;;;;;;22.97;42.89;98218.09;67667;1281;1016511;-61
2023/03/23 09:52:04;;;;;;;21.50;7.40;;;;;;;22.96;42.75;98224.11;67596;1281;1016422;-61
2023/03/23 09:55:06;;;;;;;24.20;8.20;;;;;;;22.45;41.96;98221.02;67605;1281;1016458;-61
2023/03/23 09:58:09;;;;;;;22.90;7.20;;;;;;;22.55;43.68;98219.30;67607;1281;1016144;-61
2023/03/23 10:01:11;;;;;;;22.20;6.50;;;;;;;23.05;41.79;98209.89;67639;1281;1016391;-61
2023/03/23 10:04:13;;;;;;;21.40;6.40;;;;;;;23.40;41.04;98199.48;67658;1281;1016397;-61
2023/03/23 10:07:16;;;;;;;22.20;6.80;;;;;;;23.61;39.95;98203.17;67615;1281;1016455;-61
2023/03/23 10:10:18;;;;;;;23.10;6.80;;;;;;;23.56;39.61;98197.88;67610;1281;1018199;-61
2023/03/23 10:13:21;;;;;;;22.20;7.00;;;;;;;23.22;39.32;98195.45;67659;1281;1016424;-61
2023/03/23 10:16:24;;;;;;;23.60;7.30;;;;;;;23.11;40.18;98192.36;67632;1281;1016413;-61
2023/03/23 10:19:26;;;;;;;23.10;7.60;;;;;;;23.31;40.31;98190.50;67625;1258;1016513;-61
2023/03/23 10:22:29;;;;;;;22.20;7.10;;;;;;;23.52;40.23;98187.45;67640;1281;1016665;-61
2023/03/23 10:25:31;;;;;;;24.70;8.30;;;;;;;23.66;39.32;98183.41;67599;1281;1016297;-61
2023/03/23 10:28:33;;;;;;;25.10;7.90;;;;;;;23.96;39.72;98177.41;67627;1281;1016576;-61
2023/03/23 10:31:36;;;;;;;21.60;7.60;;;;;;;24.20;39.88;98170.63;67647;1281;1016456;-61
2023/03/23 10:34:38;;;;;;;30.80;8.50;;;;;;;24.45;38.67;98167.55;67655;1281;1016443;-61
2023/03/23 10:37:40;;;;;;;23.30;7.50;;;;;;;24.24;38.46;98163.80;67600;1281;1016355;-62
2023/03/23 10:40:43;;;;;;;22.70;7.00;;;;;;;23.79;38.00;98163.22;67598;1281;1016002;-61
2023/03/23 10:43:49;;;;;;;22.40;6.80;;;;;;;23.26;39.74;98162.77;67596;1281;1016931;-61
2023/03/23 10:46:53;;;;;;;21.00;7.80;;;;;;;23.15;39.82;98163.32;67632;1281;1017147;-61
2023/03/23 10:49:56;;;;;;;25.00;7.90;;;;;;;23.01;39.45;98148.88;67618;1281;1016387;-61
2023/03/23 10:52:59;;;;;;;25.30;8.00;;;;;;;22.91;39.67;98148.80;67641;1281;1016339;-61
2023/03/23 10:56:01;;;;;;;22.90;7.30;;;;;;;22.78;39.44;98150.80;67622;1281;1016407;-61
2023/03/23 10:59:04;;;;;;;25.90;7.80;;;;;;;22.69;39.18;98141.03;67654;1281;1016326;-61
2023/03/23 11:02:08;;;;;;;22.80;7.30;;;;;;;22.79;39.43;98138.89;67534;1281;1016844;-61
2023/03/23 11:05:10;;;;;;;21.40;6.50;;;;;;;23.19;39.18;98126.85;67530;1281;1016267;-61
2023/03/23 11:08:13;;;;;;;22.20;6.50;;;;;;;23.82;39.16;98131.16;67504;1281;1015872;-62
2023/03/23 11:11:15;;;;;;;22.70;7.10;;;;;;;24.24;37.88;98125.90;67592;1281;1016381;-61
2023/03/23 11:14:18;;;;;;;20.80;6.50;;;;;;;24.38;38.12;98125.75;67638;1281;1016540;-62
2023/03/23 11:17:21;;;;;;;23.00;5.70;;;;;;;24.25;37.37;98117.41;67585;1281;1016343;-61
2023/03/23 11:20:23;;;;;;;20.40;5.20;;;;;;;24.01;37.03;98114.98;67633;1281;1016677;-61
2023/03/23 11:23:26;;;;;;;18.80;5.00;;;;;;;23.73;36.17;98115.27;67672;1281;1016526;-62
2023/03/23 11:26:28;;;;;;;17.50;5.10;;;;;;;23.43;36.72;98114.41;67617;1281;1016411;-61
2023/03/23 11:29:31;;;;;;;16.70;4.50;;;;;;;23.21;36.95;98114.61;67584;1281;1016413;-61
2023/03/23 11:32:33;;;;;;;17.00;4.60;;;;;;;23.40;36.26;98115.11;67593;1281;1016372;-61
2023/03/23 11:35:36;;;;;;;18.50;4.90;;;;;;;23.66;35.84;98109.04;67617;1281;1016206;-62
2023/03/23 11:38:38;;;;;;;18.20;4.60;;;;;;;23.90;35.88;98103.53;67663;1281;1016462;-61
2023/03/23 11:41:40;;;;;;;16.70;4.10;;;;;;;23.90;34.46;98097.11;67635;1281;1016482;-62
2023/03/23 11:44:44;;;;;;;18.50;4.70;;;;;;;24.07;35.51;98091.44;67583;1281;1015973;-62
2023/03/23 11:47:46;;;;;;;16.20;4.50;;;;;;;24.24;34.61;98089.50;67635;1281;1016056;-62
2023/03/23 11:50:49;;;;;;;16.20;4.40;;;;;;;24.21;34.76;98105.80;67609;1281;1016459;-61
2023/03/23 11:53:51;;;;;;;16.40;4.00;;;;;;;23.77;34.76;98104.44;67607;1281;1018010;-61
2023/03/23 11:56:54;;;;;;;18.70;3.90;;;;;;;23.97;35.66;98092.41;67592;1281;1016512;-61
2023/03/23 12:00:00;;;;;;;11.80;3.40;;;;;;;24.22;35.29;98099.96;67630;1281;1016242;-62
2023/03/23 12:03:03;;;;;;;16.80;3.20;;;;;;;24.38;34.92;98094.13;67650;1281;1016428;-62
2023/03/23 12:06:06;;;;;;;13.20;3.10;;;;;;;24.06;34.30;98105.89;67646;1281;1016755;-62
2023/03/23 12:09:10;;;;;;;9.40;3.00;;;;;;;23.43;34.60;98118.74;67605;1281;1019357;-62
2023/03/23 12:12:12;;;;;;;10.00;3.00;;;;;;;23.18;35.51;98117.70;67605;1281;1016505;-62
2023/03/23 12:15:15;;;;;;;10.10;2.80;;;;;;;22.97;35.72;98121.73;67645;1281;1018044;-62
2023/03/23 12:18:17;;;;;;;6.80;2.30;;;;;;;22.83;35.45;98122.80;67655;1281;1016307;-62
2023/03/23 12:21:20;;;;;;;10.90;2.90;;;;;;;22.62;35.62;98141.66;67643;1281;1016312;-62
2023/03/23 12:24:23;;;;;;;13.00;3.20;;;;;;;22.31;36.51;98141.46;67616;1281;1016380;-61
2023/03/23 12:27:26;;;;;;;12.40;3.10;;;;;;;22.26;37.22;98132.23;67582;1281;1016447;-62
2023/03/23 12:30:28;;;;;;;12.70;2.90;;;;;;;22.24;37.09;98128.37;67583;1281;1016187;-62
2023/03/23 12:33:31;;;;;;;10.00;2.90;;;;;;;22.04;36.53;98160.71;67590;1281;1015768;-62
2023/03/23 12:36:33;;;;;;;11.40;2.90;;;;;;;21.64;37.74;98159.54;67658;1281;1016901;-62
2023/03/23 12:39:35;;;;;;;7.30;2.60;;;;;;;21.51;37.96;98146.97;67626;1281;1016377;-62
2023/03/23 12:42:38;;;;;;;9.90;2.60;;;;;;;21.48;38.27;98141.42;67635;1281;1016508;-62
2023/03/23 12:45:41;;;;;;;;;;;;;;;21.37;38.60;98167.97;67596;1281;1016201;-62
2023/03/23 12:48:43;;;;;;;13.40;3.00;;;;;;;21.08;39.14;98170.11;67641;1281;1016335;-62
2023/03/23 12:51:46;;;;;;;13.20;3.00;;;;;;;20.97;39.15;98172.91;67628;1281;1016396;-61
2023/03/23 12:54:51;;;;;;;9.40;2.90;;;;;;;20.77;39.62;98179.79;67594;1281;1016126;-62
2023/03/23 12:57:54;;;;;;;12.00;3.40;;;;;;;20.79;40.06;98168.80;67649;1281;1016446;-62
2023/03/23 13:00:57;;;;;;;12.60;3.30;;;;;;;20.83;40.34;98184.13;67620;1281;1015828;-61
2023/03/23 13:04:00;;;;;;;14.10;3.30;;;;;;;21.04;40.35;98176.44;67582;1281;1016467;-61
2023/03/23 13:07:03;;;;;;;;;;;;;;;21.15;40.26;98173.66;67590;1281;1015493;-61
2023/03/23 13:10:06;;;;;;;12.80;3.50;;;;;;;20.93;40.59;98173.70;67618;1281;1016641;-61
2023/03/23 13:13:08;;;;;;;;;;;;;;;20.88;40.69;98183.86;67615;1281;1016175;-61
2023/03/23 13:16:11;;;;;;;13.60;3.30;;;;;;;20.71;40.53;98182.23;67589;1257;1016470;-61
2023/03/23 13:19:13;;;;;;;11.20;3.10;;;;;;;20.67;40.69;98178.89;65056;1281;6382293;-61
2023/03/23 13:22:15;;;;;;;10.00;3.30;;;;;;;20.83;40.89;98163.38;67638;1281;1016904;-61
2023/03/23 13:25:18;;;;;;;;;;;;;;;20.81;40.81;98162.39;67654;1281;1017747;-61
2023/03/23 13:28:25;;;;;;;10.90;3.20;;;;;;;20.80;41.42;98152.14;67643;1281;1016330;-61
2023/03/23 13:31:30;;;;;;;14.40;3.50;;;;;;;20.83;41.33;98157.70;67633;1281;1016115;-61
2023/03/23 13:34:32;;;;;;;13.50;4.20;;;;;;;20.71;41.12;98156.66;67636;1281;1015971;-61
2023/03/23 13:37:35;;;;;;;;;;;;;;;20.50;41.27;98157.97;67614;1281;1016435;-61
2023/03/23 13:40:37;;;;;;;10.30;3.00;;;;;;;20.50;41.72;98151.36;67602;1281;1016389;-61
2023/03/23 13:43:39;;;;;;;15.60;3.70;;;;;;;20.40;42.04;98153.52;67632;1281;1018573;-61
2023/03/23 13:46:42;;;;;;;11.90;3.60;;;;;;;20.35;42.17;98140.63;67596;1281;1016449;-61
2023/03/23 13:49:45;;;;;;;13.60;3.30;;;;;;;20.28;42.66;98135.53;67538;1281;1016699;-61
2023/03/23 13:52:47;;;;;;;12.40;3.20;;;;;;;20.47;42.54;98140.02;67597;1281;1016206;-61